Time,TemperatureF,DewpointF,PressureIn,WindDirection,WindDirectionDegrees,WindSpeedMPH,WindSpeedGustMPH,Humidity,HourlyPrecipIn,Conditions,Clouds,dailyrainin,SoftwareType,DateUTC
2013-02-16 00:00:00,24.2,20.3,30.21,North,355,0.0,0.0,85,0.00,,,0.00,Wunderground v.1.15,2013-02-16 05:00:00,
2013-02-16 00:02:00,24.2,20.3,30.21,North,355,0.0,0.0,85,0.00,,,0.00,Wunderground v.1.15,2013-02-16 05:02:00,
2013-02-16 00:03:00,24.2,20.3,30.21,North,355,0.0,0.0,85,0.00,,,0.00,Wunderground v.1.15,2013-02-16 05:03:00,
2013-02-16 00:09:00,24.2,20.6,30.21,North,355,0.0,0.0,86,0.00,,,0.00,Wunderground v.1.15,2013-02-16 05:09:00,
2013-02-16 00:12:00,24.1,20.5,30.21,North,355,0.0,0.0,86,0.00,,,0.00,Wunderground v.1.15,2013-02-16 05:12:00,
2013-02-16 00:18:00,24.1,20.5,30.21,North,355,0.0,0.0,86,0.00,,,0.00,Wunderground v.1.15,2013-02-16 05:18:00,
2013-02-16 00:24:00,24.1,20.5,30.20,North,355,0.0,1.0,86,0.00,,,0.00,Wunderground v.1.15,2013-02-16 05:24:00,
2013-02-16 00:29:00,24.1,20.5,30.21,North,355,0.0,0.0,86,0.00,,,0.00,Wunderground v.1.15,2013-02-16 05:29:00,
2013-02-16 00:32:00,24.1,20.5,30.20,North,355,0.0,0.0,86,0.00,,,0.00,Wunderground v.1.15,2013-02-16 05:32:00,
2013-02-16 00:38:00,24.0,20.4,30.20,North,355,0.0,0.0,86,0.00,,,0.00,Wunderground v.1.15,2013-02-16 05:38:00,
2013-02-16 00:44:00,23.9,20.6,30.20,North,355,0.0,0.0,87,0.00,,,0.00,Wunderground v.1.15,2013-02-16 05:44:00,
2013-02-16 00:50:00,23.9,20.6,30.20,North,355,0.0,0.0,87,0.00,,,0.00,Wunderground v.1.15,2013-02-16 05:50:00,
2013-02-16 00:55:00,23.8,20.5,30.20,North,355,0.0,0.0,87,0.00,,,0.00,Wunderground v.1.15,2013-02-16 05:55:00,
2013-02-16 01:01:00,23.8,20.5,30.20,North,355,0.0,4.0,87,0.00,,,0.00,Wunderground v.1.15,2013-02-16 06:01:00,
2013-02-16 01:07:00,23.8,20.5,30.20,WNW,292,0.0,4.0,87,0.00,,,0.00,Wunderground v.1.15,2013-02-16 06:07:00,
2013-02-16 01:13:00,23.8,20.2,30.20,NW,325,1.0,4.0,86,0.00,,,0.00,Wunderground v.1.15,2013-02-16 06:13:00,
2013-02-16 01:19:00,23.8,20.2,30.20,NNW,328,1.0,4.0,86,0.00,,,0.00,Wunderground v.1.15,2013-02-16 06:19:00,
2013-02-16 01:25:00,23.8,20.2,30.20,NW,304,0.0,4.0,86,0.00,,,0.00,Wunderground v.1.15,2013-02-16 06:25:00,
2013-02-16 01:31:00,23.8,19.9,30.20,NW,323,1.0,4.0,85,0.00,,,0.00,Wunderground v.1.15,2013-02-16 06:31:00,
2013-02-16 01:36:00,23.8,19.9,30.20,NW,323,1.0,4.0,85,0.00,,,0.00,Wunderground v.1.15,2013-02-16 06:36:00,
2013-02-16 01:42:00,23.8,19.9,30.20,North,355,1.0,4.0,85,0.00,,,0.00,Wunderground v.1.15,2013-02-16 06:42:00,
2013-02-16 01:48:00,23.7,20.1,30.20,North,360,1.0,4.0,86,0.00,,,0.00,Wunderground v.1.15,2013-02-16 06:48:00,
2013-02-16 01:54:00,23.7,20.1,30.20,North,360,0.0,4.0,86,0.00,,,0.00,Wunderground v.1.15,2013-02-16 06:54:00,
2013-02-16 02:00:00,23.6,20.0,30.20,North,5,0.0,4.0,86,0.00,,,0.00,Wunderground v.1.15,2013-02-16 07:00:00,
2013-02-16 02:06:00,23.5,19.9,30.20,North,5,0.0,4.0,86,0.00,,,0.00,Wunderground v.1.15,2013-02-16 07:06:00,
2013-02-16 02:12:00,23.4,19.8,30.20,North,5,0.0,4.0,86,0.00,,,0.00,Wunderground v.1.15,2013-02-16 07:12:00,
2013-02-16 02:17:00,23.4,19.8,30.20,North,5,0.0,4.0,86,0.00,,,0.00,Wunderground v.1.15,2013-02-16 07:17:00,
2013-02-16 02:23:00,23.3,19.5,30.20,North,5,0.0,4.0,85,0.00,,,0.00,Wunderground v.1.15,2013-02-16 07:23:00,
2013-02-16 02:29:00,23.2,18.8,30.19,NNW,329,1.0,5.0,83,0.00,,,0.00,Wunderground v.1.15,2013-02-16 07:29:00,
2013-02-16 02:35:00,23.1,17.6,30.20,NNW,329,1.0,4.0,79,0.00,,,0.00,Wunderground v.1.15,2013-02-16 07:35:00,
2013-02-16 02:40:00,23.1,17.3,30.20,NNW,329,0.0,4.0,78,0.00,,,0.00,Wunderground v.1.15,2013-02-16 07:40:00,
2013-02-16 02:46:00,23.2,17.1,30.20,NNW,329,0.0,4.0,77,0.00,,,0.00,Wunderground v.1.15,2013-02-16 07:46:00,
2013-02-16 02:52:00,23.2,16.8,30.20,NW,325,1.0,4.0,76,0.00,,,0.00,Wunderground v.1.15,2013-02-16 07:52:00,
2013-02-16 02:57:00,23.2,16.4,30.19,NW,321,0.0,4.0,75,0.00,,,0.00,Wunderground v.1.15,2013-02-16 07:57:00,
2013-02-16 03:03:00,23.2,16.4,30.19,NNW,330,0.0,4.0,75,0.00,,,0.00,Wunderground v.1.15,2013-02-16 08:03:00,
2013-02-16 03:09:00,23.3,16.2,30.19,NNW,329,0.0,4.0,74,0.00,,,0.00,Wunderground v.1.15,2013-02-16 08:09:00,
2013-02-16 03:15:00,23.3,16.2,30.18,NNW,330,1.0,4.0,74,0.00,,,0.00,Wunderground v.1.15,2013-02-16 08:15:00,
2013-02-16 03:20:00,23.2,16.4,30.18,NNW,330,0.0,4.0,75,0.00,,,0.00,Wunderground v.1.15,2013-02-16 08:20:00,
2013-02-16 03:26:00,23.2,16.1,30.18,NNW,330,0.0,4.0,74,0.00,,,0.00,Wunderground v.1.15,2013-02-16 08:26:00,
2013-02-16 03:32:00,23.0,15.9,30.18,NNW,330,0.0,4.0,74,0.00,,,0.00,Wunderground v.1.15,2013-02-16 08:32:00,
2013-02-16 03:38:00,22.9,15.8,30.18,West,260,1.0,4.0,74,0.00,,,0.00,Wunderground v.1.15,2013-02-16 08:38:00,
2013-02-16 03:43:00,22.8,16.1,30.18,West,260,1.0,4.0,75,0.00,,,0.00,Wunderground v.1.15,2013-02-16 08:43:00,
2013-02-16 03:49:00,22.8,16.1,30.18,West,260,1.0,4.0,75,0.00,,,0.00,Wunderground v.1.15,2013-02-16 08:49:00,
2013-02-16 03:55:00,22.7,16.0,30.18,West,260,1.0,4.0,75,0.00,,,0.00,Wunderground v.1.15,2013-02-16 08:55:00,
2013-02-16 04:01:00,22.7,16.3,30.18,West,260,1.0,4.0,76,0.00,,,0.00,Wunderground v.1.15,2013-02-16 09:01:00,
2013-02-16 04:07:00,22.7,16.3,30.18,West,260,1.0,4.0,76,0.00,,,0.00,Wunderground v.1.15,2013-02-16 09:07:00,
2013-02-16 04:13:00,22.7,16.6,30.17,West,269,2.0,4.0,77,0.00,,,0.00,Wunderground v.1.15,2013-02-16 09:13:00,
2013-02-16 04:19:00,22.7,17.5,30.17,NW,309,2.0,4.0,80,0.00,,,0.00,Wunderground v.1.15,2013-02-16 09:19:00,
2013-02-16 04:25:00,22.5,17.3,30.17,NW,309,0.0,4.0,80,0.00,,,0.00,Wunderground v.1.15,2013-02-16 09:25:00,
2013-02-16 04:31:00,22.4,17.5,30.17,NW,309,0.0,4.0,81,0.00,,,0.00,Wunderground v.1.15,2013-02-16 09:31:00,
2013-02-16 04:37:00,22.2,17.5,30.17,NW,309,0.0,4.0,82,0.00,,,0.00,Wunderground v.1.15,2013-02-16 09:37:00,
2013-02-16 04:42:00,22.1,17.4,30.17,NW,309,0.0,4.0,82,0.00,,,0.00,Wunderground v.1.15,2013-02-16 09:42:00,
2013-02-16 04:48:00,22.0,17.6,30.17,NW,309,0.0,4.0,83,0.00,,,0.00,Wunderground v.1.15,2013-02-16 09:48:00,
2013-02-16 04:54:00,21.9,17.8,30.17,NW,317,0.0,4.0,84,0.00,,,0.00,Wunderground v.1.15,2013-02-16 09:54:00,
2013-02-16 05:00:00,21.8,17.7,30.17,NW,317,0.0,4.0,84,0.00,,,0.00,Wunderground v.1.15,2013-02-16 10:00:00,
2013-02-16 05:05:00,21.8,17.7,30.17,NW,317,0.0,4.0,84,0.00,,,0.00,Wunderground v.1.15,2013-02-16 10:05:00,
2013-02-16 05:11:00,21.7,17.6,30.17,NW,317,0.0,4.0,84,0.00,,,0.00,Wunderground v.1.15,2013-02-16 10:11:00,
2013-02-16 05:17:00,21.8,17.7,30.16,NW,317,0.0,4.0,84,0.00,,,0.00,Wunderground v.1.15,2013-02-16 10:17:00,
2013-02-16 05:23:00,21.8,17.7,30.17,NW,317,0.0,4.0,84,0.00,,,0.00,Wunderground v.1.15,2013-02-16 10:23:00,
2013-02-16 05:28:00,21.9,17.8,30.16,NW,317,0.0,4.0,84,0.00,,,0.00,Wunderground v.1.15,2013-02-16 10:28:00,
2013-02-16 05:34:00,21.9,17.8,30.16,NW,317,0.0,4.0,84,0.00,,,0.00,Wunderground v.1.15,2013-02-16 10:34:00,
2013-02-16 05:40:00,22.0,17.9,30.17,NW,317,0.0,4.0,84,0.00,,,0.00,Wunderground v.1.15,2013-02-16 10:40:00,
2013-02-16 05:46:00,21.9,18.1,30.16,NW,317,1.0,4.0,85,0.00,,,0.00,Wunderground v.1.15,2013-02-16 10:46:00,
2013-02-16 05:52:00,21.8,18.3,30.17,NW,317,1.0,4.0,86,0.00,,,0.00,Wunderground v.1.15,2013-02-16 10:52:00,
2013-02-16 05:58:00,21.8,18.5,30.17,NW,317,1.0,4.0,87,0.00,,,0.00,Wunderground v.1.15,2013-02-16 10:58:00,
2013-02-16 06:03:00,21.7,18.4,30.17,NW,317,1.0,2.0,87,0.00,,,0.00,Wunderground v.1.15,2013-02-16 11:03:00,
2013-02-16 06:09:00,21.6,18.6,30.17,NW,317,1.0,2.0,88,0.00,,,0.00,Wunderground v.1.15,2013-02-16 11:09:00,
2013-02-16 06:15:00,21.6,18.9,30.17,NW,317,1.0,1.0,89,0.00,,,0.00,Wunderground v.1.15,2013-02-16 11:15:00,
2013-02-16 06:20:00,21.6,18.9,30.17,NW,317,1.0,2.0,89,0.00,,,0.00,Wunderground v.1.15,2013-02-16 11:20:00,
2013-02-16 06:25:00,21.6,18.9,30.17,NW,316,1.0,4.0,89,0.00,,,0.00,Wunderground v.1.15,2013-02-16 11:25:00,
2013-02-16 06:30:00,21.5,19.0,30.17,WSW,244,1.0,1.0,90,0.00,,,0.00,Wunderground v.1.15,2013-02-16 11:30:00,
2013-02-16 06:36:00,21.5,19.0,30.17,WSW,244,1.0,1.0,90,0.00,,,0.00,Wunderground v.1.15,2013-02-16 11:36:00,
2013-02-16 06:41:00,21.4,18.9,30.17,WSW,244,0.0,0.0,90,0.00,,,0.00,Wunderground v.1.15,2013-02-16 11:41:00,
2013-02-16 06:46:00,21.3,18.8,30.17,WSW,244,0.0,0.0,90,0.00,,,0.00,Wunderground v.1.15,2013-02-16 11:46:00,
2013-02-16 06:51:00,21.3,18.8,30.17,WSW,244,0.0,0.0,90,0.00,,,0.00,Wunderground v.1.15,2013-02-16 11:51:00,
2013-02-16 06:56:00,21.4,18.9,30.17,WSW,244,0.0,2.0,90,0.00,,,0.00,Wunderground v.1.15,2013-02-16 11:56:00,
2013-02-16 07:02:00,21.5,19.3,30.17,WSW,244,1.0,3.0,91,0.00,,,0.00,Wunderground v.1.15,2013-02-16 12:02:00,
2013-02-16 07:07:00,21.6,19.4,30.17,WSW,244,2.0,3.0,91,0.00,,,0.00,Wunderground v.1.15,2013-02-16 12:07:00,
2013-02-16 07:12:00,21.6,19.4,30.17,NW,313,2.0,5.0,91,0.00,,,0.00,Wunderground v.1.15,2013-02-16 12:12:00,
2013-02-16 07:17:00,21.5,19.0,30.17,West,266,2.0,5.0,90,0.00,,,0.00,Wunderground v.1.15,2013-02-16 12:17:00,
2013-02-16 07:22:00,21.5,18.5,30.17,WNW,300,2.0,3.0,88,0.00,,,0.00,Wunderground v.1.15,2013-02-16 12:22:00,
2013-02-16 07:28:00,21.4,17.9,30.17,WNW,298,2.0,6.0,86,0.00,,,0.00,Wunderground v.1.15,2013-02-16 12:28:00,
2013-02-16 07:33:00,21.3,17.2,30.17,West,273,2.0,5.0,84,0.00,,,0.00,Wunderground v.1.15,2013-02-16 12:33:00,
2013-02-16 07:38:00,21.2,16.6,30.17,West,268,2.0,5.0,82,0.00,,,0.00,Wunderground v.1.15,2013-02-16 12:38:00,
2013-02-16 07:43:00,21.1,16.2,30.17,West,268,2.0,3.0,81,0.00,,,0.00,Wunderground v.1.15,2013-02-16 12:43:00,
2013-02-16 07:48:00,21.0,15.8,30.17,West,269,2.0,5.0,80,0.00,,,0.00,Wunderground v.1.15,2013-02-16 12:48:00,
2013-02-16 07:54:00,20.9,15.4,30.17,West,263,2.0,4.0,79,0.00,,,0.00,Wunderground v.1.15,2013-02-16 12:54:00,
2013-02-16 07:59:00,20.8,15.3,30.17,West,270,2.0,3.0,79,0.00,,,0.00,Wunderground v.1.15,2013-02-16 12:59:00,
2013-02-16 08:04:00,20.8,15.3,30.17,West,274,2.0,4.0,79,0.00,,,0.00,Wunderground v.1.15,2013-02-16 13:04:00,
2013-02-16 08:09:00,21.1,15.6,30.17,West,264,2.0,2.0,79,0.00,,,0.00,Wunderground v.1.15,2013-02-16 13:09:00,
2013-02-16 08:14:00,21.4,16.2,30.17,West,264,2.0,3.0,80,0.00,,,0.00,Wunderground v.1.15,2013-02-16 13:14:00,
2013-02-16 08:20:00,21.7,16.2,30.17,NW,318,3.0,3.0,79,0.00,,,0.00,Wunderground v.1.15,2013-02-16 13:20:00,
2013-02-16 08:25:00,21.8,16.9,30.17,NW,317,3.0,4.0,81,0.00,,,0.00,Wunderground v.1.15,2013-02-16 13:25:00,
2013-02-16 08:30:00,21.8,17.2,30.17,NW,319,2.0,3.0,82,0.00,,,0.00,Wunderground v.1.15,2013-02-16 13:30:00,
2013-02-16 08:35:00,21.8,17.4,30.17,WNW,300,1.0,3.0,83,0.00,,,0.00,Wunderground v.1.15,2013-02-16 13:35:00,
2013-02-16 08:40:00,21.9,17.5,30.17,NW,321,1.0,3.0,83,0.00,,,0.00,Wunderground v.1.15,2013-02-16 13:40:00,
2013-02-16 08:46:00,22.0,17.6,30.17,NW,307,1.0,3.0,83,0.00,,,0.00,Wunderground v.1.15,2013-02-16 13:46:00,
2013-02-16 08:51:00,22.1,17.4,30.17,WNW,290,2.0,3.0,82,0.00,,,0.00,Wunderground v.1.15,2013-02-16 13:51:00,
2013-02-16 08:56:00,22.3,17.4,30.17,West,261,3.0,6.0,81,0.00,,,0.00,Wunderground v.1.15,2013-02-16 13:56:00,
2013-02-16 09:02:00,22.4,17.2,30.17,WSW,256,3.0,5.0,80,0.00,,,0.00,Wunderground v.1.15,2013-02-16 14:02:00,
2013-02-16 09:07:00,22.7,17.5,30.17,West,263,3.0,5.0,80,0.00,,,0.00,Wunderground v.1.15,2013-02-16 14:07:00,
2013-02-16 09:13:00,22.9,17.1,30.17,WNW,303,2.0,6.0,78,0.00,,,0.00,Wunderground v.1.15,2013-02-16 14:13:00,
2013-02-16 09:19:00,23.0,17.2,30.17,NNW,339,3.0,6.0,78,0.00,,,0.00,Wunderground v.1.15,2013-02-16 14:19:00,
2013-02-16 09:25:00,23.1,17.3,30.17,WNW,296,3.0,4.0,78,0.00,,,0.00,Wunderground v.1.15,2013-02-16 14:25:00,
2013-02-16 09:30:00,23.3,17.5,30.17,West,273,2.0,5.0,78,0.00,,,0.00,Wunderground v.1.15,2013-02-16 14:30:00,
2013-02-16 09:36:00,23.4,16.9,30.17,NW,311,3.0,5.0,76,0.00,,,0.00,Wunderground v.1.15,2013-02-16 14:36:00,
2013-02-16 09:42:00,23.5,16.1,30.17,West,275,3.0,6.0,73,0.00,,,0.00,Wunderground v.1.15,2013-02-16 14:42:00,
2013-02-16 09:48:00,23.3,16.2,30.17,West,273,5.0,11.0,74,0.00,,,0.00,Wunderground v.1.15,2013-02-16 14:48:00,
2013-02-16 09:53:00,23.6,15.6,30.17,WSW,249,5.0,9.0,71,0.00,,,0.00,Wunderground v.1.15,2013-02-16 14:53:00,
2013-02-16 09:59:00,23.5,15.8,30.17,WSW,248,5.0,5.0,72,0.00,,,0.00,Wunderground v.1.15,2013-02-16 14:59:00,
2013-02-16 10:05:00,23.9,15.9,30.17,WNW,290,4.0,8.0,71,0.00,,,0.00,Wunderground v.1.15,2013-02-16 15:05:00,
2013-02-16 10:11:00,24.5,16.1,30.17,West,275,2.0,8.0,70,0.00,,,0.00,Wunderground v.1.15,2013-02-16 15:11:00,
2013-02-16 10:18:00,24.9,16.2,30.17,NW,311,3.0,8.0,69,0.00,,,0.00,Wunderground v.1.15,2013-02-16 15:18:00,
2013-02-16 10:24:00,25.1,16.4,30.17,NNE,14,2.0,8.0,69,0.00,,,0.00,Wunderground v.1.15,2013-02-16 15:24:00,
2013-02-16 10:30:00,25.2,14.7,30.17,WNW,286,1.0,1.0,64,0.00,,,0.00,Wunderground v.1.15,2013-02-16 15:30:00,
2013-02-16 10:35:00,25.1,14.6,30.17,North,355,1.0,8.0,64,0.00,,,0.00,Wunderground v.1.15,2013-02-16 15:35:00,
2013-02-16 10:41:00,24.5,13.0,30.17,NNW,345,1.0,8.0,61,0.00,,,0.00,Wunderground v.1.15,2013-02-16 15:41:00,
2013-02-16 10:47:00,24.3,12.0,30.17,West,281,2.0,8.0,59,0.00,,,0.00,Wunderground v.1.15,2013-02-16 15:47:00,
2013-02-16 10:53:00,24.5,12.6,30.17,NNE,28,2.0,8.0,60,0.00,,,0.00,Wunderground v.1.15,2013-02-16 15:53:00,
2013-02-16 10:59:00,24.7,13.5,30.16,WSW,239,3.0,8.0,62,0.00,,,0.00,Wunderground v.1.15,2013-02-16 15:59:00,
2013-02-16 11:05:00,24.6,13.1,30.16,WSW,241,4.0,8.0,61,0.00,,,0.00,Wunderground v.1.15,2013-02-16 16:05:00,
2013-02-16 11:10:00,24.5,13.0,30.16,West,259,4.0,8.0,61,0.00,,,0.00,Wunderground v.1.15,2013-02-16 16:10:00,
2013-02-16 11:16:00,24.4,14.0,30.16,WNW,300,5.0,9.0,64,0.00,,,0.00,Wunderground v.1.15,2013-02-16 16:16:00,
2013-02-16 11:21:00,24.7,14.2,30.17,NNW,348,3.0,8.0,64,0.00,,,0.00,Wunderground v.1.15,2013-02-16 16:21:00,
2013-02-16 11:26:00,24.7,13.5,30.16,NW,304,2.0,8.0,62,0.00,,,0.00,Wunderground v.1.15,2013-02-16 16:26:00,
2013-02-16 11:31:00,24.8,14.3,30.16,NNE,22,1.0,8.0,64,0.00,,,0.00,Wunderground v.1.15,2013-02-16 16:31:00,
2013-02-16 11:37:00,24.8,13.6,30.16,NNW,331,1.0,8.0,62,0.00,,,0.00,Wunderground v.1.15,2013-02-16 16:37:00,
2013-02-16 11:42:00,25.1,13.9,30.16,WSW,238,2.0,8.0,62,0.00,,,0.00,Wunderground v.1.15,2013-02-16 16:42:00,
2013-02-16 11:47:00,25.3,13.3,30.15,WSW,246,4.0,10.0,60,0.00,,,0.00,Wunderground v.1.15,2013-02-16 16:47:00,
2013-02-16 11:52:00,25.7,14.5,30.16,NNE,32,3.0,8.0,62,0.00,,,0.00,Wunderground v.1.15,2013-02-16 16:52:00,
2013-02-16 11:57:00,25.9,14.3,30.15,NNW,332,2.0,8.0,61,0.00,,,0.00,Wunderground v.1.15,2013-02-16 16:57:00,
2013-02-16 12:02:00,25.9,14.3,30.15,NW,306,2.0,3.0,61,0.00,,,0.00,Wunderground v.1.15,2013-02-16 17:02:00,
2013-02-16 12:08:00,25.9,14.7,30.15,WNW,290,2.0,6.0,62,0.00,,,0.00,Wunderground v.1.15,2013-02-16 17:08:00,
2013-02-16 12:14:00,25.7,12.9,30.15,West,268,2.0,3.0,58,0.00,,,0.00,Wunderground v.1.15,2013-02-16 17:14:00,
2013-02-16 12:19:00,25.8,13.4,30.15,North,355,3.0,3.0,59,0.00,,,0.00,Wunderground v.1.15,2013-02-16 17:19:00,
2013-02-16 12:25:00,25.8,12.6,30.15,WNW,296,3.0,5.0,57,0.00,,,0.00,Wunderground v.1.15,2013-02-16 17:25:00,
2013-02-16 12:36:00,25.5,13.9,30.14,NNW,331,2.0,2.0,61,0.00,,,0.00,Wunderground v.1.15,2013-02-16 17:36:00,
2013-02-16 12:42:00,25.4,13.8,30.14,NW,306,2.0,5.0,61,0.00,,,0.00,Wunderground v.1.15,2013-02-16 17:42:00,
2013-02-16 12:48:00,25.6,12.9,30.14,NW,319,2.0,4.0,58,0.00,,,0.00,Wunderground v.1.15,2013-02-16 17:48:00,
2013-02-16 12:54:00,25.6,12.9,30.13,NW,310,2.0,4.0,58,0.00,,,0.00,Wunderground v.1.15,2013-02-16 17:54:00,
2013-02-16 12:59:00,25.8,13.8,30.13,NNW,327,3.0,4.0,60,0.00,,,0.00,Wunderground v.1.15,2013-02-16 17:59:00,
2013-02-16 13:05:00,26.3,13.9,30.12,NW,324,3.0,4.0,59,0.00,,,0.00,Wunderground v.1.15,2013-02-16 18:05:00,
2013-02-16 13:11:00,26.7,13.1,30.13,West,269,3.0,8.0,56,0.00,,,0.01,Wunderground v.1.15,2013-02-16 18:11:00,
2013-02-16 13:16:00,26.2,12.2,30.12,NE,34,4.0,8.0,55,0.00,,,0.01,Wunderground v.1.15,2013-02-16 18:16:00,
2013-02-16 13:22:00,25.8,13.4,30.12,WSW,254,4.0,4.0,59,0.00,,,0.01,Wunderground v.1.15,2013-02-16 18:22:00,
2013-02-16 13:28:00,25.6,12.5,30.12,WSW,257,4.0,6.0,57,0.00,,,0.01,Wunderground v.1.15,2013-02-16 18:28:00,
2013-02-16 13:34:00,25.3,13.0,30.12,WNW,284,4.0,7.0,59,0.00,,,0.01,Wunderground v.1.15,2013-02-16 18:34:00,
2013-02-16 13:40:00,25.2,12.9,30.12,NNE,22,3.0,3.0,59,0.00,,,0.01,Wunderground v.1.15,2013-02-16 18:40:00,
2013-02-16 13:45:00,25.2,12.9,30.11,WNW,291,3.0,6.0,59,0.00,,,0.01,Wunderground v.1.15,2013-02-16 18:45:00,
2013-02-16 13:51:00,25.3,13.7,30.11,NW,308,2.0,6.0,61,0.00,,,0.01,Wunderground v.1.15,2013-02-16 18:51:00,
2013-02-16 13:57:00,25.4,15.3,30.11,NNW,341,2.0,6.0,65,0.00,,,0.01,Wunderground v.1.15,2013-02-16 18:57:00,
2013-02-16 14:03:00,25.3,15.5,30.11,NW,310,2.0,6.0,66,0.00,,,0.01,Wunderground v.1.15,2013-02-16 19:03:00,
2013-02-16 14:09:00,25.2,15.1,30.11,WNW,285,2.0,6.0,65,0.00,,,0.01,Wunderground v.1.15,2013-02-16 19:09:00,
2013-02-16 14:15:00,25.0,14.9,30.11,WNW,299,3.0,6.0,65,0.00,,,0.01,Wunderground v.1.15,2013-02-16 19:15:00,
2013-02-16 14:20:00,25.0,15.2,30.11,ENE,63,2.0,6.0,66,0.00,,,0.01,Wunderground v.1.15,2013-02-16 19:20:00,
2013-02-16 14:26:00,24.7,14.9,30.11,West,279,4.0,9.0,66,0.00,,,0.01,Wunderground v.1.15,2013-02-16 19:26:00,
2013-02-16 14:32:00,24.6,15.2,30.11,SW,233,6.0,6.0,67,0.00,,,0.01,Wunderground v.1.15,2013-02-16 19:32:00,
2013-02-16 14:38:00,24.4,15.3,30.11,West,271,3.0,6.0,68,0.00,,,0.01,Wunderground v.1.15,2013-02-16 19:38:00,
2013-02-16 14:43:00,24.4,15.7,30.11,West,279,2.0,6.0,69,0.00,,,0.01,Wunderground v.1.15,2013-02-16 19:43:00,
2013-02-16 14:49:00,24.4,15.7,30.11,WSW,254,2.0,6.0,69,0.00,,,0.01,Wunderground v.1.15,2013-02-16 19:49:00,
2013-02-16 14:55:00,24.3,15.3,30.10,WSW,246,3.0,6.0,68,0.00,,,0.01,Wunderground v.1.15,2013-02-16 19:55:00,
2013-02-16 15:00:00,24.3,15.3,30.10,SW,225,4.0,4.0,68,0.00,,,0.01,Wunderground v.1.15,2013-02-16 20:00:00,
2013-02-16 15:06:00,24.6,16.2,30.10,West,259,2.0,4.0,70,0.00,,,0.01,Wunderground v.1.15,2013-02-16 20:06:00,
2013-02-16 15:12:00,25.4,17.3,30.10,WSW,248,1.0,1.0,71,0.00,,,0.01,Wunderground v.1.15,2013-02-16 20:12:00,
2013-02-16 15:18:00,26.0,17.6,30.09,SW,229,1.0,2.0,70,0.00,,,0.01,Wunderground v.1.15,2013-02-16 20:18:00,
2013-02-16 15:24:00,26.6,18.5,30.10,West,263,1.0,3.0,71,0.00,,,0.01,Wunderground v.1.15,2013-02-16 20:24:00,
2013-02-16 15:29:00,27.0,17.8,30.09,WNW,297,1.0,4.0,68,0.00,,,0.01,Wunderground v.1.15,2013-02-16 20:29:00,
2013-02-16 15:35:00,27.0,17.5,30.09,West,266,1.0,3.0,67,0.00,,,0.01,Wunderground v.1.15,2013-02-16 20:35:00,
2013-02-16 15:41:00,26.7,16.5,30.10,West,266,0.0,0.0,65,0.00,,,0.01,Wunderground v.1.15,2013-02-16 20:41:00,
2013-02-16 15:47:00,26.5,17.0,30.09,NNW,327,1.0,4.0,67,0.00,,,0.01,Wunderground v.1.15,2013-02-16 20:47:00,
2013-02-16 15:52:00,26.2,16.0,30.09,WNW,297,1.0,2.0,65,0.00,,,0.01,Wunderground v.1.15,2013-02-16 20:52:00,
2013-02-16 15:58:00,25.8,14.9,30.09,West,262,2.0,5.0,63,0.00,,,0.01,Wunderground v.1.15,2013-02-16 20:58:00,
2013-02-16 16:04:00,25.4,14.9,30.10,West,275,3.0,7.0,64,0.00,,,0.01,Wunderground v.1.15,2013-02-16 21:04:00,
2013-02-16 16:10:00,25.4,14.9,30.10,West,275,1.0,7.0,64,0.00,,,0.01,Wunderground v.1.15,2013-02-16 21:10:00,
2013-02-16 16:15:00,25.4,14.9,30.10,South,188,1.0,7.0,64,0.00,,,0.01,Wunderground v.1.15,2013-02-16 21:15:00,
2013-02-16 16:21:00,25.3,14.1,30.10,South,181,1.0,7.0,62,0.00,,,0.01,Wunderground v.1.15,2013-02-16 21:21:00,
2013-02-16 16:27:00,25.2,14.4,30.10,West,275,1.0,7.0,63,0.00,,,0.01,Wunderground v.1.15,2013-02-16 21:27:00,
2013-02-16 16:33:00,25.0,14.5,30.10,WSW,242,1.0,7.0,64,0.00,,,0.01,Wunderground v.1.15,2013-02-16 21:33:00,
2013-02-16 16:39:00,24.8,14.7,30.10,West,265,2.0,7.0,65,0.00,,,0.01,Wunderground v.1.15,2013-02-16 21:39:00,
2013-02-16 16:45:00,24.7,14.6,30.10,WNW,290,1.0,7.0,65,0.00,,,0.01,Wunderground v.1.15,2013-02-16 21:45:00,
2013-02-16 16:51:00,24.7,14.6,30.10,WNW,290,0.0,7.0,65,0.00,,,0.01,Wunderground v.1.15,2013-02-16 21:51:00,
2013-02-16 16:57:00,24.6,14.9,30.10,WNW,290,1.0,7.0,66,0.00,,,0.01,Wunderground v.1.15,2013-02-16 21:57:00,
2013-02-16 17:03:00,24.5,14.8,30.10,WNW,290,0.0,7.0,66,0.00,,,0.01,Wunderground v.1.15,2013-02-16 22:03:00,
2013-02-16 17:09:00,24.5,15.1,30.10,West,271,0.0,7.0,67,0.00,,,0.01,Wunderground v.1.15,2013-02-16 22:09:00,
2013-02-16 17:14:00,24.4,14.7,30.10,West,271,0.0,7.0,66,0.00,,,0.01,Wunderground v.1.15,2013-02-16 22:14:00,
2013-02-16 17:20:00,24.4,15.3,30.09,SSE,165,0.0,7.0,68,0.00,,,0.01,Wunderground v.1.15,2013-02-16 22:20:00,
2013-02-16 17:26:00,24.3,15.9,30.10,SSW,213,2.0,7.0,70,0.00,,,0.01,Wunderground v.1.15,2013-02-16 22:26:00,
2013-02-16 17:32:00,24.1,16.4,30.10,SSW,210,1.0,7.0,72,0.00,,,0.01,Wunderground v.1.15,2013-02-16 22:32:00,
2013-02-16 17:38:00,24.0,16.9,30.10,SSW,210,0.0,7.0,74,0.00,,,0.01,Wunderground v.1.15,2013-02-16 22:38:00,
2013-02-16 17:43:00,24.0,16.9,30.11,SSW,210,0.0,7.0,74,0.00,,,0.01,Wunderground v.1.15,2013-02-16 22:43:00,
2013-02-16 17:49:00,23.8,17.6,30.11,SW,216,1.0,7.0,77,0.00,,,0.01,Wunderground v.1.15,2013-02-16 22:49:00,
2013-02-16 17:55:00,23.2,18.2,30.11,SW,236,2.0,7.0,81,0.00,,,0.01,Wunderground v.1.15,2013-02-16 22:55:00,
2013-02-16 18:00:00,22.7,18.6,30.12,WSW,240,2.0,2.0,84,0.00,,,0.01,Wunderground v.1.15,2013-02-16 23:00:00,
2013-02-16 18:06:00,22.4,18.8,30.12,WSW,240,1.0,2.0,86,0.00,,,0.01,Wunderground v.1.15,2013-02-16 23:06:00,
2013-02-16 18:11:00,22.1,18.8,30.12,West,278,1.0,6.0,87,0.00,,,0.01,Wunderground v.1.15,2013-02-16 23:11:00,
2013-02-16 18:17:00,21.7,18.7,30.12,West,273,2.0,6.0,88,0.00,,,0.01,Wunderground v.1.15,2013-02-16 23:17:00,
2013-02-16 18:23:00,21.5,18.8,30.12,WNW,298,1.0,2.0,89,0.00,,,0.01,Wunderground v.1.15,2013-02-16 23:23:00,
2013-02-16 18:28:00,21.3,18.6,30.12,NW,310,1.0,3.0,89,0.00,,,0.01,Wunderground v.1.15,2013-02-16 23:28:00,
2013-02-16 18:34:00,21.2,18.5,30.12,NW,307,0.0,1.0,89,0.00,,,0.01,Wunderground v.1.15,2013-02-16 23:34:00,
2013-02-16 18:40:00,21.1,18.6,30.12,NW,307,0.0,0.0,90,0.00,,,0.01,Wunderground v.1.15,2013-02-16 23:40:00,
2013-02-16 18:47:00,21.1,18.6,30.12,NW,307,0.0,0.0,90,0.00,,,0.01,Wunderground v.1.15,2013-02-16 23:47:00,
2013-02-16 18:53:00,21.1,18.6,30.13,WNW,302,0.0,0.0,90,0.00,,,0.01,Wunderground v.1.15,2013-02-16 23:53:00,
2013-02-16 18:59:00,21.1,18.9,30.12,West,259,0.0,2.0,91,0.00,,,0.01,Wunderground v.1.15,2013-02-16 23:59:00,
2013-02-16 19:04:00,21.1,18.9,30.12,WNW,291,1.0,4.0,91,0.00,,,0.01,Wunderground v.1.15,2013-02-17 00:04:00,
2013-02-16 19:10:00,21.1,18.9,30.13,NW,312,1.0,4.0,91,0.00,,,0.01,Wunderground v.1.15,2013-02-17 00:10:00,
2013-02-16 19:16:00,21.1,18.9,30.12,NW,313,1.0,4.0,91,0.00,,,0.01,Wunderground v.1.15,2013-02-17 00:16:00,
2013-02-16 19:22:00,21.1,18.9,30.13,NW,319,1.0,4.0,91,0.00,,,0.01,Wunderground v.1.15,2013-02-17 00:22:00,
2013-02-16 19:28:00,20.9,18.7,30.12,NNE,15,0.0,4.0,91,0.00,,,0.01,Wunderground v.1.15,2013-02-17 00:28:00,
2013-02-16 19:34:00,20.7,18.5,30.12,NW,309,0.0,4.0,91,0.00,,,0.01,Wunderground v.1.15,2013-02-17 00:34:00,
2013-02-16 19:39:00,20.4,17.9,30.12,NW,316,0.0,4.0,90,0.00,,,0.01,Wunderground v.1.15,2013-02-17 00:39:00,
2013-02-16 19:45:00,20.1,17.6,30.12,WNW,297,0.0,4.0,90,0.00,,,0.01,Wunderground v.1.15,2013-02-17 00:45:00,
2013-02-16 19:51:00,20.0,17.8,30.12,NW,308,0.0,4.0,91,0.00,,,0.01,Wunderground v.1.15,2013-02-17 00:51:00,
2013-02-16 19:57:00,20.1,17.9,30.12,NW,320,1.0,4.0,91,0.00,,,0.01,Wunderground v.1.15,2013-02-17 00:57:00,
2013-02-16 20:03:00,19.9,17.7,30.12,NW,319,0.0,4.0,91,0.00,,,0.01,Wunderground v.1.15,2013-02-17 01:03:00,
2013-02-16 20:08:00,19.8,17.6,30.12,NW,319,0.0,4.0,91,0.00,,,0.01,Wunderground v.1.15,2013-02-17 01:08:00,
2013-02-16 20:14:00,19.4,16.9,30.12,NW,320,0.0,4.0,90,0.00,,,0.01,Wunderground v.1.15,2013-02-17 01:14:00,
2013-02-16 20:20:00,19.0,16.6,30.12,NW,320,0.0,4.0,90,0.00,,,0.01,Wunderground v.1.15,2013-02-17 01:20:00,
2013-02-16 20:26:00,18.5,15.8,30.12,NW,320,0.0,4.0,89,0.00,,,0.01,Wunderground v.1.15,2013-02-17 01:26:00,
2013-02-16 20:32:00,18.2,15.8,30.12,NW,319,0.0,4.0,90,0.00,,,0.01,Wunderground v.1.15,2013-02-17 01:32:00,
2013-02-16 20:37:00,17.9,15.5,30.12,NW,319,0.0,4.0,90,0.00,,,0.01,Wunderground v.1.15,2013-02-17 01:37:00,
2013-02-16 20:43:00,17.7,15.3,30.12,NW,320,0.0,4.0,90,0.00,,,0.01,Wunderground v.1.15,2013-02-17 01:43:00,
2013-02-16 20:49:00,17.6,15.4,30.12,NW,320,0.0,4.0,91,0.00,,,0.01,Wunderground v.1.15,2013-02-17 01:49:00,
2013-02-16 20:55:00,17.5,15.3,30.12,NW,319,0.0,4.0,91,0.00,,,0.01,Wunderground v.1.15,2013-02-17 01:55:00,
2013-02-16 21:00:00,17.6,15.4,30.12,NW,319,0.0,0.0,91,0.00,,,0.01,Wunderground v.1.15,2013-02-17 02:00:00,
2013-02-16 21:06:00,17.6,15.4,30.12,NW,319,0.0,1.0,91,0.00,,,0.01,Wunderground v.1.15,2013-02-17 02:06:00,
2013-02-16 21:11:00,17.7,15.5,30.12,NW,319,0.0,0.0,91,0.00,,,0.01,Wunderground v.1.15,2013-02-17 02:11:00,
2013-02-16 21:17:00,17.8,15.9,30.12,NW,320,0.0,0.0,92,0.00,,,0.01,Wunderground v.1.15,2013-02-17 02:17:00,
2013-02-16 21:23:00,18.0,16.1,30.12,NW,319,0.0,0.0,92,0.00,,,0.01,Wunderground v.1.15,2013-02-17 02:23:00,
2013-02-16 21:29:00,18.1,16.2,30.12,NW,319,0.0,0.0,92,0.00,,,0.01,Wunderground v.1.15,2013-02-17 02:29:00,
2013-02-16 21:34:00,18.2,16.3,30.12,WNW,288,0.0,2.0,92,0.00,,,0.01,Wunderground v.1.15,2013-02-17 02:34:00,
2013-02-16 21:40:00,18.4,16.5,30.12,WNW,288,1.0,1.0,92,0.00,,,0.01,Wunderground v.1.15,2013-02-17 02:40:00,
2013-02-16 21:46:00,18.5,16.6,30.11,WNW,288,0.0,1.0,92,0.00,,,0.01,Wunderground v.1.15,2013-02-17 02:46:00,
2013-02-16 21:52:00,18.5,16.6,30.12,WNW,288,0.0,1.0,92,0.00,,,0.01,Wunderground v.1.15,2013-02-17 02:52:00,
2013-02-16 21:57:00,18.6,16.7,30.12,WNW,288,1.0,2.0,92,0.00,,,0.01,Wunderground v.1.15,2013-02-17 02:57:00,
2013-02-16 22:03:00,18.8,16.9,30.11,WNW,284,1.0,4.0,92,0.00,,,0.01,Wunderground v.1.15,2013-02-17 03:03:00,
2013-02-16 22:09:00,19.0,17.1,30.12,WNW,291,1.0,4.0,92,0.00,,,0.01,Wunderground v.1.15,2013-02-17 03:09:00,
2013-02-16 22:15:00,19.3,17.4,30.12,WNW,292,2.0,6.0,92,0.00,,,0.01,Wunderground v.1.15,2013-02-17 03:15:00,
2013-02-16 22:21:00,19.3,17.4,30.12,West,281,3.0,4.0,92,0.00,,,0.01,Wunderground v.1.15,2013-02-17 03:21:00,
2013-02-16 22:27:00,19.3,17.4,30.12,NW,318,3.0,5.0,92,0.00,,,0.01,Wunderground v.1.15,2013-02-17 03:27:00,
2013-02-16 22:32:00,19.3,17.1,30.11,West,272,2.0,2.0,91,0.00,,,0.01,Wunderground v.1.15,2013-02-17 03:32:00,
2013-02-16 22:38:00,19.2,17.0,30.11,WNW,286,1.0,6.0,91,0.00,,,0.01,Wunderground v.1.15,2013-02-17 03:38:00,
2013-02-16 22:44:00,19.2,17.0,30.10,WNW,302,1.0,5.0,91,0.00,,,0.01,Wunderground v.1.15,2013-02-17 03:44:00,
2013-02-16 22:50:00,19.1,16.9,30.11,WNW,299,1.0,1.0,91,0.00,,,0.01,Wunderground v.1.15,2013-02-17 03:50:00,
2013-02-16 22:56:00,19.1,16.9,30.11,NW,321,1.0,3.0,91,0.00,,,0.01,Wunderground v.1.15,2013-02-17 03:56:00,
2013-02-16 23:02:00,19.0,16.6,30.11,NW,314,2.0,2.0,90,0.00,,,0.01,Wunderground v.1.15,2013-02-17 04:02:00,
2013-02-16 23:07:00,19.0,16.6,30.10,WNW,288,2.0,3.0,90,0.00,,,0.01,Wunderground v.1.15,2013-02-17 04:07:00,
2013-02-16 23:13:00,19.1,16.7,30.10,WNW,283,1.0,2.0,90,0.00,,,0.01,Wunderground v.1.15,2013-02-17 04:13:00,
2013-02-16 23:19:00,19.1,16.9,30.10,NW,306,2.0,5.0,91,0.00,,,0.01,Wunderground v.1.15,2013-02-17 04:19:00,
2013-02-16 23:25:00,19.1,16.9,30.10,NW,311,2.0,8.0,91,0.00,,,0.01,Wunderground v.1.15,2013-02-17 04:25:00,
2013-02-16 23:31:00,19.0,16.6,30.10,NW,312,2.0,4.0,90,0.00,,,0.01,Wunderground v.1.15,2013-02-17 04:31:00,
2013-02-16 23:36:00,18.9,16.5,30.10,WNW,286,1.0,4.0,90,0.00,,,0.01,Wunderground v.1.15,2013-02-17 04:36:00,
2013-02-16 23:42:00,18.8,16.4,30.10,West,264,2.0,6.0,90,0.00,,,0.01,Wunderground v.1.15,2013-02-17 04:42:00,
2013-02-16 23:47:00,18.7,16.3,30.10,West,267,3.0,7.0,90,0.00,,,0.01,Wunderground v.1.15,2013-02-17 04:47:00,
2013-02-16 23:53:00,18.6,16.2,30.10,West,269,4.0,7.0,90,0.00,,,0.01,Wunderground v.1.15,2013-02-17 04:53:00,
2013-02-16 23:59:00,18.6,16.2,30.09,West,281,3.0,7.0,90,0.00,,,0.00,Wunderground v.1.15,2013-02-17 04:59:00,